Time;durP1;ratioP1;P1;durP2;ratioP2;P2;SDS_P1;SDS_P2;PMS_P1;PMS_P2;Temp;Humidity;BMP_temperature;BMP_pressure;BME280_temperature;BME280_humidity;BME280_pressure;Samples;Min_cycle;Max_cycle;Signal;HPM_P1;HPM_P2
2021/05/31 00:01:43;;;;;;;11.90;9.50;;;;;;;;;;5117235;28;20789;-74
2021/05/31 00:04:10;;;;;;;9.77;8.77;;;;;;;;;;5116912;28;20443;-74
2021/05/31 00:06:37;;;;;;;14.80;9.60;;;;;;;;;;5117059;28;20467;-74
2021/05/31 00:09:06;;;;;;;16.33;8.43;;;;;;;;;;5117618;28;20811;-74
2021/05/31 00:11:32;;;;;;;12.33;9.63;;;;;;;;;;5117227;28;20438;-74
2021/05/31 00:13:59;;;;;;;13.17;8.77;;;;;;;;;;5116732;28;20439;-74
2021/05/31 00:16:26;;;;;;;10.53;9.10;;;;;;;;;;5116981;28;20464;-74
2021/05/31 00:18:52;;;;;;;11.67;10.00;;;;;;;;;;5116940;28;20430;-73
2021/05/31 00:21:20;;;;;;;15.47;9.30;;;;;;;;;;5116568;28;20441;-73
2021/05/31 00:23:46;;;;;;;15.00;8.80;;;;;;;;;;5116859;28;20439;-73
2021/05/31 00:26:16;;;;;;;15.07;9.23;;;;;;;;;;5116799;28;20466;-73
2021/05/31 00:28:43;;;;;;;14.97;10.90;;;;;;;;;;5116620;28;20482;-73
2021/05/31 00:31:09;;;;;;;18.20;9.70;;;;;;;;;;5116361;28;20454;-73
2021/05/31 00:33:36;;;;;;;15.90;10.27;;;;;;;;;;5117439;28;20435;-74
2021/05/31 00:36:03;;;;;;;14.67;10.20;;;;;;;;;;5117015;28;20530;-73
2021/05/31 00:38:30;;;;;;;12.77;10.37;;;;;;;;;;5116706;28;20939;-73
2021/05/31 00:40:56;;;;;;;13.27;10.57;;;;;;;;;;5116859;28;20445;-74
2021/05/31 00:43:29;;;;;;;12.83;9.23;;;;;;;;;;5116134;28;20489;-73
2021/05/31 00:45:55;;;;;;;14.13;9.50;;;;;;;;;;5116728;28;20434;-73
2021/05/31 00:48:23;;;;;;;17.50;10.50;;;;;;;;;;5116300;28;20489;-73
2021/05/31 00:50:50;;;;;;;14.77;10.57;;;;;;;;;;5116021;28;20474;-73
2021/05/31 00:53:16;;;;;;;12.60;10.60;;;;;;;;;;5116280;28;20792;-74
2021/05/31 00:55:43;;;;;;;13.50;10.70;;;;;;;;;;5116228;28;20442;-72
2021/05/31 00:58:10;;;;;;;15.20;11.37;;;;;;;;;;5116166;28;20451;-73
2021/05/31 01:00:38;;;;;;;15.33;11.40;;;;;;;;;;5115385;28;20445;-75
2021/05/31 01:03:04;;;;;;;15.50;10.27;;;;;;;;;;5116564;28;20469;-73
2021/05/31 01:05:31;;;;;;;18.23;10.80;;;;;;;;;;5115994;28;20435;-73
2021/05/31 01:08:00;;;;;;;15.27;10.60;;;;;;;;;;5116026;28;20576;-73
2021/05/31 01:10:31;;;;;;;17.80;11.70;;;;;;;;;;5115721;28;20476;-73
2021/05/31 01:13:00;;;;;;;18.30;11.20;;;;;;;;;;5115437;28;20434;-73
2021/05/31 01:15:28;;;;;;;16.80;11.77;;;;;;;;;;5115643;28;20503;-74
2021/05/31 01:18:00;;;;;;;16.13;11.33;;;;;;;;;;5115309;28;20497;-73
2021/05/31 01:20:35;;;;;;;16.20;11.50;;;;;;;;;;5115276;28;20916;-73
2021/05/31 01:23:03;;;;;;;19.37;10.83;;;;;;;;;;5115224;28;20436;-73
2021/05/31 01:25:34;;;;;;;20.13;12.30;;;;;;;;;;5115231;28;20504;-73
2021/05/31 01:28:22;;;;;;;14.57;10.90;;;;;;;;;;5115019;28;20466;-73
2021/05/31 01:30:51;;;;;;;14.67;11.13;;;;;;;;;;5089968;28;20453;-73
2021/05/31 01:33:19;;;;;;;19.67;12.70;;;;;;;;;;5115296;28;20443;-73
2021/05/31 01:35:46;;;;;;;15.37;11.43;;;;;;;;;;5115267;28;20438;-73
2021/05/31 01:38:16;;;;;;;17.73;12.03;;;;;;;;;;5114716;28;20483;-72
2021/05/31 01:40:43;;;;;;;17.67;11.87;;;;;;;;;;5115512;28;20431;-72
2021/05/31 01:43:11;;;;;;;15.70;11.00;;;;;;;;;;5114811;28;20435;-72
2021/05/31 01:45:38;;;;;;;18.93;13.43;;;;;;;;;;5115640;28;20435;-72
2021/05/31 01:48:09;;;;;;;14.67;11.67;;;;;;;;;;5115181;28;20871;-72
2021/05/31 01:50:35;;;;;;;20.20;13.83;;;;;;;;;;5115121;28;20427;-72
2021/05/31 01:53:02;;;;;;;16.83;11.97;;;;;;;;;;5115157;28;20468;-73
2021/05/31 01:55:30;;;;;;;12.97;11.50;;;;;;;;;;5114888;28;20439;-73
2021/05/31 01:57:56;;;;;;;20.10;12.43;;;;;;;;;;5114908;28;20532;-72
2021/05/31 02:00:23;;;;;;;18.13;13.10;;;;;;;;;;5114753;28;20449;-73
2021/05/31 02:02:51;;;;;;;13.10;11.33;;;;;;;;;;5114402;28;20961;-73
2021/05/31 02:05:20;;;;;;;14.07;11.77;;;;;;;;;;5114748;28;20448;-72
2021/05/31 02:07:46;;;;;;;23.13;11.73;;;;;;;;;;5114872;28;20481;-73
2021/05/31 02:10:14;;;;;;;19.17;12.43;;;;;;;;;;5114654;28;20445;-73
2021/05/31 02:12:44;;;;;;;14.17;12.30;;;;;;;;;;5114783;28;20448;-73
2021/05/31 02:15:12;;;;;;;23.03;12.87;;;;;;;;;;5114560;28;20443;-73
2021/05/31 02:17:42;;;;;;;17.70;12.67;;;;;;;;;;5114825;28;20441;-73
2021/05/31 02:20:10;;;;;;;17.80;13.00;;;;;;;;;;5114657;28;20974;-73
2021/05/31 02:22:42;;;;;;;18.50;11.20;;;;;;;;;;5114392;28;20445;-73
2021/05/31 02:25:09;;;;;;;21.57;13.90;;;;;;;;;;5114653;28;20444;-73
2021/05/31 02:27:35;;;;;;;22.03;13.40;;;;;;;;;;5115235;28;20522;-73
2021/05/31 02:30:02;;;;;;;16.50;12.53;;;;;;;;;;5114601;28;20446;-73
2021/05/31 02:32:29;;;;;;;17.37;12.93;;;;;;;;;;5114195;28;20449;-73
2021/05/31 02:34:56;;;;;;;25.27;13.60;;;;;;;;;;5114429;28;20446;-74
2021/05/31 02:37:26;;;;;;;24.90;13.77;;;;;;;;;;5114254;28;20445;-74
2021/05/31 02:39:54;;;;;;;18.10;12.27;;;;;;;;;;5114086;28;20445;-74
2021/05/31 02:42:21;;;;;;;20.23;14.33;;;;;;;;;;5113625;28;20438;-74
2021/05/31 02:44:47;;;;;;;25.70;15.57;;;;;;;;;;5113655;28;20936;-74
2021/05/31 02:47:14;;;;;;;25.97;13.87;;;;;;;;;;5114632;28;20438;-74
2021/05/31 02:49:41;;;;;;;20.60;14.53;;;;;;;;;;5114354;28;20869;-74
2021/05/31 02:52:08;;;;;;;22.77;14.83;;;;;;;;;;5113978;28;20490;-72
2021/05/31 02:54:34;;;;;;;21.77;15.17;;;;;;;;;;5113940;28;20444;-73
2021/05/31 02:57:02;;;;;;;22.40;15.50;;;;;;;;;;5113609;28;20934;-72
2021/05/31 02:59:29;;;;;;;21.53;15.87;;;;;;;;;;5113876;28;20841;-72
2021/05/31 03:01:56;;;;;;;23.80;15.90;;;;;;;;;;5114092;28;20437;-73
2021/05/31 03:04:22;;;;;;;23.67;15.30;;;;;;;;;;5113805;28;20439;-72
2021/05/31 03:06:49;;;;;;;22.47;15.27;;;;;;;;;;5114142;28;20446;-72
2021/05/31 03:09:16;;;;;;;26.37;18.47;;;;;;;;;;5114304;28;20474;-72
2021/05/31 03:11:42;;;;;;;25.43;15.83;;;;;;;;;;5113827;28;20439;-72
2021/05/31 03:14:10;;;;;;;22.57;15.70;;;;;;;;;;5113678;28;20449;-73
2021/05/31 03:16:37;;;;;;;23.67;16.03;;;;;;;;;;5114378;28;20467;-73
2021/05/31 03:19:04;;;;;;;21.38;16.77;;;;;;;;;;5113694;28;20490;-73
2021/05/31 03:21:30;;;;;;;26.77;16.30;;;;;;;;;;5113618;28;20193;-74
2021/05/31 03:23:57;;;;;;;25.60;16.40;;;;;;;;;;5114044;28;20457;-73
2021/05/31 03:26:24;;;;;;;27.83;17.30;;;;;;;;;;5118089;28;20462;-72
2021/05/31 03:28:51;;;;;;;22.83;16.60;;;;;;;;;;5117339;28;20982;-72
2021/05/31 03:31:19;;;;;;;30.40;18.50;;;;;;;;;;5117722;28;20434;-72
2021/05/31 03:33:46;;;;;;;31.30;18.07;;;;;;;;;;5117615;28;20450;-72
2021/05/31 03:36:12;;;;;;;27.17;18.47;;;;;;;;;;5117287;28;20463;-72
2021/05/31 03:38:39;;;;;;;25.13;16.57;;;;;;;;;;5117263;28;20896;-72
2021/05/31 03:41:06;;;;;;;24.13;16.70;;;;;;;;;;5117071;28;20441;-72
2021/05/31 03:43:33;;;;;;;28.73;17.83;;;;;;;;;;5116955;28;20503;-73
2021/05/31 03:45:59;;;;;;;28.10;18.33;;;;;;;;;;5117463;28;20810;-72
2021/05/31 03:48:27;;;;;;;26.43;18.50;;;;;;;;;;5117193;28;20477;-72
2021/05/31 03:51:08;;;;;;;32.87;18.53;;;;;;;;;;5117403;28;20434;-73
2021/05/31 03:53:35;;;;;;;28.20;18.50;;;;;;;;;;5118178;28;20427;-73
2021/05/31 03:56:01;;;;;;;35.67;21.00;;;;;;;;;;5117704;28;20681;-73
2021/05/31 03:58:28;;;;;;;32.33;20.58;;;;;;;;;;5117175;28;20453;-73
2021/05/31 04:00:55;;;;;;;26.20;19.13;;;;;;;;;;5117069;28;20196;-72
2021/05/31 04:03:22;;;;;;;31.93;18.80;;;;;;;;;;5116699;28;20441;-72
2021/05/31 04:06:04;;;;;;;31.03;18.93;;;;;;;;;;5117296;28;20962;-73
2021/05/31 04:11:35;;;;;;;27.40;19.57;;;;;;;;;;5116990;28;20474;-74
2021/05/31 04:14:02;;;;;;;25.70;20.37;;;;;;;;;;5117240;28;20429;-74
2021/05/31 04:16:29;;;;;;;31.70;20.27;;;;;;;;;;5116863;28;20464;-72
2021/05/31 04:18:55;;;;;;;29.20;20.90;;;;;;;;;;5116644;28;20442;-76
2021/05/31 04:21:24;;;;;;;32.50;19.93;;;;;;;;;;5116634;28;20453;-75
2021/05/31 04:23:50;;;;;;;29.03;20.20;;;;;;;;;;5116540;28;20490;-74
2021/05/31 04:26:17;;;;;;;31.40;20.33;;;;;;;;;;5116773;28;20477;-74
2021/05/31 04:28:44;;;;;;;33.50;20.63;;;;;;;;;;5116445;28;20828;-74
2021/05/31 04:31:10;;;;;;;29.20;20.20;;;;;;;;;;5125904;27;20520;-74
2021/05/31 04:33:37;;;;;;;36.40;22.67;;;;;;;;;;5136205;27;20434;-74
2021/05/31 04:36:04;;;;;;;28.47;20.50;;;;;;;;;;5135322;27;20529;-74
2021/05/31 04:38:32;;;;;;;32.37;19.50;;;;;;;;;;5136721;27;20471;-74
2021/05/31 04:40:59;;;;;;;31.60;20.40;;;;;;;;;;5136384;27;20451;-74
2021/05/31 04:43:26;;;;;;;30.10;20.07;;;;;;;;;;5136126;27;20448;-74
2021/05/31 04:45:55;;;;;;;28.37;21.60;;;;;;;;;;5136882;27;20529;-73
2021/05/31 04:48:22;;;;;;;31.63;20.67;;;;;;;;;;5136307;27;20748;-74
2021/05/31 04:50:55;;;;;;;39.00;22.23;;;;;;;;;;5136290;27;20493;-75
2021/05/31 04:53:22;;;;;;;34.10;21.27;;;;;;;;;;5137253;27;20426;-74
2021/05/31 04:55:50;;;;;;;34.93;21.30;;;;;;;;;;5136418;27;20444;-73
2021/05/31 04:58:17;;;;;;;37.50;21.60;;;;;;;;;;5136515;27;20441;-73
2021/05/31 05:00:44;;;;;;;35.90;22.20;;;;;;;;;;5136401;27;20444;-74
2021/05/31 05:03:10;;;;;;;36.87;21.27;;;;;;;;;;5136403;27;20440;-74
2021/05/31 05:05:37;;;;;;;32.73;23.53;;;;;;;;;;5136463;27;20517;-74
2021/05/31 05:08:04;;;;;;;31.80;21.80;;;;;;;;;;5136008;27;20489;-74
2021/05/31 05:10:31;;;;;;;33.60;22.73;;;;;;;;;;5136696;27;20437;-73
2021/05/31 05:12:59;;;;;;;34.97;21.50;;;;;;;;;;5136070;27;20466;-74
2021/05/31 05:15:26;;;;;;;28.87;21.30;;;;;;;;;;5135429;27;20544;-76
2021/05/31 05:17:54;;;;;;;33.77;22.20;;;;;;;;;;5135708;27;20512;-76
2021/05/31 05:20:21;;;;;;;32.10;21.67;;;;;;;;;;5135762;27;20440;-76
2021/05/31 05:22:48;;;;;;;36.20;22.70;;;;;;;;;;5135716;27;20969;-74
2021/05/31 05:25:15;;;;;;;33.83;21.90;;;;;;;;;;5135739;27;20473;-74
2021/05/31 05:27:42;;;;;;;36.30;22.70;;;;;;;;;;5135823;27;20560;-74
2021/05/31 05:30:12;;;;;;;31.43;21.33;;;;;;;;;;5136107;27;20618;-74
2021/05/31 05:32:39;;;;;;;27.70;18.53;;;;;;;;;;5135124;27;20436;-75
2021/05/31 05:35:15;;;;;;;40.97;25.20;;;;;;;;;;5135462;27;20439;-74
2021/05/31 05:37:53;;;;;;;33.70;22.93;;;;;;;;;;5135312;27;20852;-75
2021/05/31 05:43:17;;;;;;;31.33;20.93;;;;;;;;;;5122511;27;20496;-76
2021/05/31 05:45:52;;;;;;;32.50;22.63;;;;;;;;;;5136120;27;20525;-76
2021/05/31 05:48:19;;;;;;;34.73;22.67;;;;;;;;;;5135587;27;20792;-76
2021/05/31 05:50:45;;;;;;;41.40;23.60;;;;;;;;;;5135570;27;20521;-75
2021/05/31 05:53:12;;;;;;;32.43;21.10;;;;;;;;;;5136085;27;20445;-76
2021/05/31 05:55:39;;;;;;;33.77;22.57;;;;;;;;;;5135203;27;20445;-76
2021/05/31 05:58:06;;;;;;;26.90;20.70;;;;;;;;;;5135405;27;20438;-76
2021/05/31 06:00:33;;;;;;;36.40;21.17;;;;;;;;;;5135335;27;20440;-75
2021/05/31 06:03:02;;;;;;;35.67;22.20;;;;;;;;;;5135172;27;20433;-76
2021/05/31 06:05:29;;;;;;;40.60;22.70;;;;;;;;;;5135044;27;20437;-76
2021/05/31 06:07:56;;;;;;;30.40;22.97;;;;;;;;;;5135562;27;20437;-76
2021/05/31 06:10:22;;;;;;;35.60;22.83;;;;;;;;;;5135091;27;20442;-76
2021/05/31 06:12:49;;;;;;;39.53;22.37;;;;;;;;;;5134890;27;20446;-76
2021/05/31 06:15:16;;;;;;;28.77;23.23;;;;;;;;;;5135010;27;20797;-77
2021/05/31 06:17:44;;;;;;;34.33;23.93;;;;;;;;;;5134547;27;20446;-76
2021/05/31 06:20:12;;;;;;;32.60;22.40;;;;;;;;;;5134446;27;20446;-75
2021/05/31 06:22:40;;;;;;;34.03;22.70;;;;;;;;;;5134853;27;20434;-76
2021/05/31 06:25:08;;;;;;;32.17;22.77;;;;;;;;;;5134850;27;20482;-76
2021/05/31 06:27:35;;;;;;;32.77;22.77;;;;;;;;;;5135187;27;20815;-75
2021/05/31 06:30:01;;;;;;;27.73;21.20;;;;;;;;;;5134237;27;20481;-76
2021/05/31 06:32:28;;;;;;;30.20;20.97;;;;;;;;;;5134704;27;20473;-76
2021/05/31 06:34:56;;;;;;;33.10;20.57;;;;;;;;;;5134353;27;20440;-76
2021/05/31 06:37:24;;;;;;;30.00;21.80;;;;;;;;;;5134436;27;20449;-76
2021/05/31 06:39:50;;;;;;;33.70;22.00;;;;;;;;;;5134540;27;20458;-76
2021/05/31 06:42:17;;;;;;;30.50;21.37;;;;;;;;;;5134532;27;20487;-77
2021/05/31 06:44:45;;;;;;;31.97;20.47;;;;;;;;;;5134295;27;20440;-76
2021/05/31 06:47:11;;;;;;;28.40;20.50;;;;;;;;;;5134791;27;20444;-76
2021/05/31 06:49:40;;;;;;;30.07;20.73;;;;;;;;;;5134047;27;20473;-77
2021/05/31 06:52:07;;;;;;;27.97;21.30;;;;;;;;;;5134364;27;20438;-76
2021/05/31 06:54:35;;;;;;;32.27;20.93;;;;;;;;;;5134245;27;20438;-76
2021/05/31 06:57:01;;;;;;;28.50;22.13;;;;;;;;;;5134136;28;20528;-76
2021/05/31 06:59:28;;;;;;;28.40;20.00;;;;;;;;;;5133576;27;20442;-76
2021/05/31 07:01:55;;;;;;;32.57;22.43;;;;;;;;;;5134437;28;20445;-76
2021/05/31 07:04:22;;;;;;;23.97;19.47;;;;;;;;;;5134135;28;20962;-76
2021/05/31 07:06:49;;;;;;;28.07;21.87;;;;;;;;;;5133942;28;20441;-76
2021/05/31 07:09:15;;;;;;;32.70;21.10;;;;;;;;;;5134143;28;20505;-76
2021/05/31 07:11:46;;;;;;;32.70;22.60;;;;;;;;;;5134134;28;20438;-76
2021/05/31 07:14:18;;;;;;;28.60;21.83;;;;;;;;;;5133961;28;20442;-76
2021/05/31 07:16:45;;;;;;;31.97;20.43;;;;;;;;;;5134203;28;20430;-78
2021/05/31 07:19:12;;;;;;;43.53;22.40;;;;;;;;;;5134287;28;20651;-76
2021/05/31 07:21:40;;;;;;;27.67;18.97;;;;;;;;;;5133953;28;20489;-76
2021/05/31 07:24:07;;;;;;;32.30;21.10;;;;;;;;;;5134327;28;20444;-76
2021/05/31 07:26:34;;;;;;;25.50;20.10;;;;;;;;;;5134450;28;20469;-76
2021/05/31 07:29:02;;;;;;;35.87;25.83;;;;;;;;;;5134305;28;20939;-76
2021/05/31 07:31:28;;;;;;;22.60;18.20;;;;;;;;;;5134522;28;20440;-76
2021/05/31 07:33:55;;;;;;;28.60;18.77;;;;;;;;;;5134402;28;20552;-76
2021/05/31 07:36:22;;;;;;;25.17;18.93;;;;;;;;;;5133622;28;20966;-76
2021/05/31 07:38:50;;;;;;;27.77;18.60;;;;;;;;;;5133932;28;20450;-76
2021/05/31 07:41:17;;;;;;;26.40;18.27;;;;;;;;;;5134034;28;20441;-77
2021/05/31 07:43:43;;;;;;;30.37;20.60;;;;;;;;;;5134069;28;20529;-76
2021/05/31 07:46:13;;;;;;;27.47;20.97;;;;;;;;;;5133545;28;20429;-76
2021/05/31 07:48:41;;;;;;;26.00;19.17;;;;;;;;;;5133638;28;20477;-76
2021/05/31 07:51:16;;;;;;;27.23;20.07;;;;;;;;;;5133937;28;20511;-76
2021/05/31 07:53:43;;;;;;;23.10;18.83;;;;;;;;;;5133897;28;20450;-76
2021/05/31 07:56:10;;;;;;;27.00;20.33;;;;;;;;;;5133746;28;20434;-75
2021/05/31 07:58:37;;;;;;;27.30;19.40;;;;;;;;;;5133612;28;21033;-77
2021/05/31 08:01:04;;;;;;;27.27;20.67;;;;;;;;;;5133716;28;20448;-77
2021/05/31 08:03:32;;;;;;;25.60;19.33;;;;;;;;;;5133445;28;20457;-77
2021/05/31 08:05:59;;;;;;;22.77;19.73;;;;;;;;;;5133649;28;20923;-76
2021/05/31 08:08:26;;;;;;;27.67;18.50;;;;;;;;;;5133989;28;20445;-76
2021/05/31 08:10:52;;;;;;;32.23;19.50;;;;;;;;;;5135684;27;20463;-76
2021/05/31 08:13:19;;;;;;;26.53;19.50;;;;;;;;;;5137334;27;20448;-76
2021/05/31 08:15:46;;;;;;;25.27;19.60;;;;;;;;;;5137400;27;20606;-76
2021/05/31 08:18:13;;;;;;;24.30;19.03;;;;;;;;;;5137070;27;20966;-75
2021/05/31 08:20:41;;;;;;;21.10;17.33;;;;;;;;;;5137085;27;20474;-77
2021/05/31 08:23:08;;;;;;;28.20;18.87;;;;;;;;;;5137341;27;20529;-77
2021/05/31 08:25:35;;;;;;;23.40;18.03;;;;;;;;;;5136803;27;20438;-76
2021/05/31 08:28:03;;;;;;;20.17;16.20;;;;;;;;;;5137587;27;20442;-76
2021/05/31 08:30:30;;;;;;;19.70;14.80;;;;;;;;;;5138480;27;20471;-76
2021/05/31 08:32:57;;;;;;;19.83;16.60;;;;;;;;;;5137975;27;20434;-76
2021/05/31 08:35:25;;;;;;;18.57;15.90;;;;;;;;;;5137097;27;20508;-76
2021/05/31 08:37:53;;;;;;;25.70;18.73;;;;;;;;;;5137333;27;20438;-76
2021/05/31 08:40:20;;;;;;;21.80;17.00;;;;;;;;;;5136634;27;20440;-76
2021/05/31 08:42:47;;;;;;;21.70;16.30;;;;;;;;;;5136543;27;20477;-76
2021/05/31 08:45:15;;;;;;;29.27;16.57;;;;;;;;;;5137540;27;20449;-76
2021/05/31 08:47:43;;;;;;;22.40;15.87;;;;;;;;;;5136887;27;20517;-76
2021/05/31 08:50:10;;;;;;;24.07;17.10;;;;;;;;;;5136578;27;20971;-77
2021/05/31 08:52:37;;;;;;;19.70;16.20;;;;;;;;;;5136613;27;20521;-77
2021/05/31 08:55:07;;;;;;;20.00;16.13;;;;;;;;;;5136490;27;20438;-76
2021/05/31 08:57:34;;;;;;;21.47;15.77;;;;;;;;;;5136396;27;20902;-76
2021/05/31 09:00:00;;;;;;;20.23;17.33;;;;;;;;;;5137035;27;20441;-76
2021/05/31 09:02:31;;;;;;;21.10;17.60;;;;;;;;;;5136028;27;20453;-76
2021/05/31 09:04:58;;;;;;;20.23;14.50;;;;;;;;;;5137092;27;20419;-76
2021/05/31 09:07:24;;;;;;;19.67;15.33;;;;;;;;;;5136168;27;20446;-76
2021/05/31 09:09:53;;;;;;;18.53;14.17;;;;;;;;;;5135974;27;20879;-76
2021/05/31 09:12:23;;;;;;;21.30;16.30;;;;;;;;;;5136274;27;20434;-77
2021/05/31 09:14:57;;;;;;;18.20;15.50;;;;;;;;;;5136527;27;20423;-75
2021/05/31 09:17:24;;;;;;;17.30;13.40;;;;;;;;;;5135892;27;20438;-75
2021/05/31 09:19:51;;;;;;;20.13;15.87;;;;;;;;;;5135871;27;20442;-76
2021/05/31 09:22:18;;;;;;;18.30;13.77;;;;;;;;;;5135733;27;20579;-75
2021/05/31 09:24:53;;;;;;;15.23;13.37;;;;;;;;;;5136439;27;20440;-77
2021/05/31 09:27:20;;;;;;;19.87;16.27;;;;;;;;;;5135411;27;20560;-76
2021/05/31 09:29:56;;;;;;;16.50;12.97;;;;;;;;;;5135842;27;20481;-77
2021/05/31 09:32:23;;;;;;;15.53;12.27;;;;;;;;;;5136346;27;20437;-76
2021/05/31 09:35:00;;;;;;;13.47;11.37;;;;;;;;;;5135849;27;20481;-76
2021/05/31 09:37:28;;;;;;;13.80;12.23;;;;;;;;;;5135360;27;20494;-77
2021/05/31 09:39:59;;;;;;;15.20;11.77;;;;;;;;;;5135742;27;20540;-76
2021/05/31 09:42:26;;;;;;;12.17;10.80;;;;;;;;;;5135603;27;20957;-76
2021/05/31 09:45:02;;;;;;;12.97;10.83;;;;;;;;;;5136307;27;20452;-76
2021/05/31 09:47:29;;;;;;;10.33;9.17;;;;;;;;;;5135197;27;20448;-76
2021/05/31 09:49:56;;;;;;;10.20;9.30;;;;;;;;;;5135192;27;20561;-77
2021/05/31 09:52:23;;;;;;;10.70;8.97;;;;;;;;;;5135342;27;20537;-77
2021/05/31 09:54:50;;;;;;;13.37;11.30;;;;;;;;;;5135078;27;20434;-78
2021/05/31 09:57:18;;;;;;;10.53;9.50;;;;;;;;;;5135316;27;20836;-79
2021/05/31 09:59:46;;;;;;;9.57;8.60;;;;;;;;;;5135394;27;20523;-76
2021/05/31 10:02:19;;;;;;;9.00;8.10;;;;;;;;;;5135238;27;20448;-76
2021/05/31 10:04:56;;;;;;;10.03;8.90;;;;;;;;;;5134945;27;20506;-75
2021/05/31 10:07:36;;;;;;;9.90;8.10;;;;;;;;;;5135594;27;20450;-76
2021/05/31 10:10:03;;;;;;;9.53;8.47;;;;;;;;;;5135092;27;20466;-77
2021/05/31 10:12:30;;;;;;;13.30;8.47;;;;;;;;;;5134942;27;20521;-77
2021/05/31 10:14:57;;;;;;;10.63;8.03;;;;;;;;;;5134674;27;20927;-77
2021/05/31 10:17:25;;;;;;;10.37;9.37;;;;;;;;;;5135624;27;20540;-75
2021/05/31 10:19:52;;;;;;;9.60;8.23;;;;;;;;;;5134540;27;20521;-76
2021/05/31 10:22:19;;;;;;;9.53;8.43;;;;;;;;;;5134340;27;20935;-76
2021/05/31 10:24:48;;;;;;;11.83;8.97;;;;;;;;;;5134774;27;20468;-76
2021/05/31 10:27:16;;;;;;;12.40;7.97;;;;;;;;;;5134099;27;20982;-76
2021/05/31 10:29:43;;;;;;;7.90;7.13;;;;;;;;;;5134524;27;20496;-76
2021/05/31 10:32:10;;;;;;;6.97;6.27;;;;;;;;;;5134835;27;20533;-77
2021/05/31 10:34:45;;;;;;;6.97;6.23;;;;;;;;;;5133729;27;20438;-76
2021/05/31 10:37:19;;;;;;;11.07;7.20;;;;;;;;;;5134438;27;20544;-75
2021/05/31 10:39:46;;;;;;;10.60;7.30;;;;;;;;;;5134660;27;20434;-78
2021/05/31 10:42:13;;;;;;;7.13;6.53;;;;;;;;;;5134680;27;20442;-75
2021/05/31 10:44:42;;;;;;;7.90;7.10;;;;;;;;;;5134480;27;20465;-75
2021/05/31 10:47:12;;;;;;;10.13;8.60;;;;;;;;;;5134669;27;20441;-76
2021/05/31 10:49:38;;;;;;;11.53;7.03;;;;;;;;;;5134220;27;20553;-76
2021/05/31 10:52:07;;;;;;;6.63;6.03;;;;;;;;;;5134628;27;20521;-76
2021/05/31 10:54:37;;;;;;;6.67;6.07;;;;;;;;;;5134213;27;20488;-75
2021/05/31 10:57:07;;;;;;;7.57;5.50;;;;;;;;;;5134836;27;20801;-76
2021/05/31 10:59:34;;;;;;;6.33;4.97;;;;;;;;;;5134273;28;20830;-76
2021/05/31 11:02:01;;;;;;;9.57;4.87;;;;;;;;;;5134066;28;20525;-76
2021/05/31 11:04:29;;;;;;;5.63;4.10;;;;;;;;;;5134271;28;20467;-77
2021/05/31 11:07:01;;;;;;;4.97;4.20;;;;;;;;;;5134458;28;20450;-76
2021/05/31 11:09:33;;;;;;;5.40;4.90;;;;;;;;;;5134502;28;20978;-76
2021/05/31 11:12:01;;;;;;;7.87;5.40;;;;;;;;;;5134364;28;20423;-76
2021/05/31 11:14:32;;;;;;;7.30;6.33;;;;;;;;;;5134328;28;20840;-76
2021/05/31 11:17:00;;;;;;;15.37;12.83;;;;;;;;;;5134232;28;20525;-76
2021/05/31 11:19:33;;;;;;;5.20;4.70;;;;;;;;;;5134239;28;20537;-76
2021/05/31 11:22:00;;;;;;;5.93;5.33;;;;;;;;;;5134341;28;20526;-76
2021/05/31 11:24:27;;;;;;;6.60;4.93;;;;;;;;;;5134576;28;20472;-76
2021/05/31 11:26:55;;;;;;;5.83;4.93;;;;;;;;;;5134463;28;20479;-75
2021/05/31 11:29:22;;;;;;;6.03;5.10;;;;;;;;;;5133888;28;20486;-77
2021/05/31 11:31:48;;;;;;;7.40;5.63;;;;;;;;;;5134003;28;20449;-76
2021/05/31 11:34:15;;;;;;;6.27;4.63;;;;;;;;;;5133643;28;20519;-76
2021/05/31 11:36:43;;;;;;;5.43;4.67;;;;;;;;;;5133824;28;20444;-79
2021/05/31 11:39:10;;;;;;;5.97;5.37;;;;;;;;;;5133900;28;20444;-76
2021/05/31 11:41:42;;;;;;;5.37;4.87;;;;;;;;;;5134449;28;20525;-78
2021/05/31 11:44:16;;;;;;;4.80;4.40;;;;;;;;;;5133179;28;20439;-78
2021/05/31 11:46:46;;;;;;;10.17;7.67;;;;;;;;;;5137856;27;20510;-76
2021/05/31 11:49:13;;;;;;;4.67;4.27;;;;;;;;;;5137656;27;21061;-76
2021/05/31 11:51:40;;;;;;;4.70;4.27;;;;;;;;;;5138077;27;20532;-76
2021/05/31 11:54:06;;;;;;;4.57;4.20;;;;;;;;;;5137445;27;20439;-77
2021/05/31 11:56:34;;;;;;;4.90;4.50;;;;;;;;;;5137641;27;20484;-77
2021/05/31 11:59:01;;;;;;;5.90;4.37;;;;;;;;;;5137275;27;20938;-77
2021/05/31 12:01:30;;;;;;;6.33;5.40;;;;;;;;;;5137672;27;20772;-76
2021/05/31 12:03:57;;;;;;;4.23;3.73;;;;;;;;;;5137195;27;20485;-76
2021/05/31 12:06:23;;;;;;;4.30;3.73;;;;;;;;;;5137167;27;20474;-76
2021/05/31 12:08:53;;;;;;;5.50;4.63;;;;;;;;;;5138378;27;20459;-76
2021/05/31 12:11:24;;;;;;;6.57;4.73;;;;;;;;;;5137200;27;20439;-76
2021/05/31 12:14:00;;;;;;;3.90;3.60;;;;;;;;;;5137432;27;20436;-75
2021/05/31 12:16:29;;;;;;;4.30;3.90;;;;;;;;;;5137770;27;20431;-77
2021/05/31 12:18:57;;;;;;;5.40;3.57;;;;;;;;;;5138120;27;20527;-76
2021/05/31 12:21:23;;;;;;;5.43;3.60;;;;;;;;;;5137733;27;20505;-77
2021/05/31 12:23:52;;;;;;;4.30;3.53;;;;;;;;;;5137162;27;20445;-77
2021/05/31 12:26:22;;;;;;;3.53;3.23;;;;;;;;;;5137019;27;20484;-76
2021/05/31 12:28:51;;;;;;;7.97;5.37;;;;;;;;;;5136950;27;20422;-76
2021/05/31 12:31:18;;;;;;;6.57;4.40;;;;;;;;;;5136715;27;20605;-76
2021/05/31 12:33:45;;;;;;;4.20;3.80;;;;;;;;;;5136173;27;20957;-76
2021/05/31 12:36:13;;;;;;;6.10;3.43;;;;;;;;;;5136926;27;20544;-77
2021/05/31 12:38:40;;;;;;;6.67;3.57;;;;;;;;;;5137230;27;20441;-76
2021/05/31 12:41:07;;;;;;;5.70;3.30;;;;;;;;;;5136454;27;20437;-77
2021/05/31 12:43:35;;;;;;;3.73;3.50;;;;;;;;;;5136435;27;20512;-76
2021/05/31 12:46:02;;;;;;;5.43;3.17;;;;;;;;;;5136920;27;20530;-71
2021/05/31 12:48:29;;;;;;;3.30;3.10;;;;;;;;;;5136749;27;20521;-80
2021/05/31 12:50:57;;;;;;;4.07;3.10;;;;;;;;;;5136175;27;20475;-75
2021/05/31 12:53:30;;;;;;;5.10;3.10;;;;;;;;;;5136520;27;20843;-76
2021/05/31 12:56:00;;;;;;;3.73;3.30;;;;;;;;;;5135778;27;20908;-76
2021/05/31 12:58:27;;;;;;;3.80;3.50;;;;;;;;;;5136233;27;20449;-75
2021/05/31 13:00:55;;;;;;;5.00;3.10;;;;;;;;;;5136822;27;20434;-77
2021/05/31 13:03:22;;;;;;;3.50;3.20;;;;;;;;;;5135783;27;20671;-76
2021/05/31 13:05:50;;;;;;;4.03;3.17;;;;;;;;;;5135988;27;20487;-75
2021/05/31 13:08:17;;;;;;;6.07;3.23;;;;;;;;;;5128788;27;20515;-74
2021/05/31 13:10:48;;;;;;;5.37;3.30;;;;;;;;;;5115182;27;20562;-75
2021/05/31 13:13:15;;;;;;;4.60;3.00;;;;;;;;;;5115658;28;20843;-75
2021/05/31 13:15:43;;;;;;;3.77;3.33;;;;;;;;;;5115091;28;20516;-75
2021/05/31 13:18:12;;;;;;;2.87;2.67;;;;;;;;;;5115323;28;20428;-75
2021/05/31 13:20:40;;;;;;;3.33;3.13;;;;;;;;;;5115420;28;20452;-75
2021/05/31 13:23:09;;;;;;;4.53;2.93;;;;;;;;;;5114992;28;20473;-75
2021/05/31 13:25:36;;;;;;;3.30;3.00;;;;;;;;;;5114940;28;20962;-74
2021/05/31 13:28:14;;;;;;;3.90;2.90;;;;;;;;;;5115203;28;20488;-75
2021/05/31 13:30:41;;;;;;;3.33;3.03;;;;;;;;;;5115314;28;20441;-75
2021/05/31 13:33:10;;;;;;;3.03;2.73;;;;;;;;;;5114947;28;20414;-74
2021/05/31 13:35:37;;;;;;;4.10;2.97;;;;;;;;;;5115282;28;20492;-74
2021/05/31 13:38:05;;;;;;;4.70;3.90;;;;;;;;;;5114921;28;20453;-74
2021/05/31 13:40:32;;;;;;;3.30;3.00;;;;;;;;;;5115189;28;20813;-74
2021/05/31 13:43:03;;;;;;;9.17;3.67;;;;;;;;;;5114507;28;20496;-75
2021/05/31 13:45:32;;;;;;;4.37;3.10;;;;;;;;;;5114889;28;20481;-75
2021/05/31 13:47:59;;;;;;;10.00;3.30;;;;;;;;;;5114593;28;20504;-74
2021/05/31 13:50:27;;;;;;;3.30;2.97;;;;;;;;;;5114341;28;20797;-75
2021/05/31 13:52:54;;;;;;;5.93;3.77;;;;;;;;;;5113432;28;20481;-74
2021/05/31 13:55:21;;;;;;;3.90;3.13;;;;;;;;;;5113103;28;20418;-74
2021/05/31 13:57:48;;;;;;;11.27;5.63;;;;;;;;;;5113934;28;20503;-74
2021/05/31 14:00:17;;;;;;;8.40;4.03;;;;;;;;;;5114540;28;20479;-72
2021/05/31 14:02:45;;;;;;;4.03;3.70;;;;;;;;;;5113876;28;20440;-74
2021/05/31 14:05:12;;;;;;;5.80;5.00;;;;;;;;;;5114000;28;20414;-74
2021/05/31 14:07:40;;;;;;;9.37;8.47;;;;;;;;;;5114321;27;20422;-75
2021/05/31 14:10:07;;;;;;;5.77;4.07;;;;;;;;;;5113765;28;20519;-75
2021/05/31 14:12:34;;;;;;;5.00;3.93;;;;;;;;;;5114169;28;20592;-75
2021/05/31 14:15:01;;;;;;;4.13;3.83;;;;;;;;;;5113882;28;20509;-75
2021/05/31 14:17:27;;;;;;;4.13;3.70;;;;;;;;;;5114277;28;20563;-76
2021/05/31 14:19:56;;;;;;;8.23;4.13;;;;;;;;;;5113906;28;20443;-74
2021/05/31 14:22:22;;;;;;;4.93;4.53;;;;;;;;;;5113605;28;20430;-76
2021/05/31 14:24:49;;;;;;;7.23;4.40;;;;;;;;;;5114668;28;20446;-74
2021/05/31 14:27:17;;;;;;;4.27;3.97;;;;;;;;;;5114023;28;20449;-75
2021/05/31 14:29:44;;;;;;;4.50;4.10;;;;;;;;;;5113453;28;20472;-74
2021/05/31 14:32:11;;;;;;;4.90;3.87;;;;;;;;;;5113544;28;21029;-74
2021/05/31 14:34:38;;;;;;;5.50;3.60;;;;;;;;;;5113850;28;20447;-76
2021/05/31 14:37:07;;;;;;;6.20;3.87;;;;;;;;;;5113832;28;20447;-75